Time;durP1;ratioP1;P1;durP2;ratioP2;P2;SDS_P1;SDS_P2;PMS_P1;PMS_P2;Temp;Humidity;BMP_temperature;BMP_pressure;BME280_temperature;BME280_humidity;BME280_pressure;Samples;Min_cycle;Max_cycle;Signal;HPM_P1;HPM_P2
2022/09/08 00:01:13;;;;;;;26.27;19.23;;;;;;;12.05;54.83;100006.03;1824685;76;21004;-76
2022/09/08 00:03:40;;;;;;;30.32;20.10;;;;;;;12.03;54.89;100010.19;1813152;77;21067;-77
2022/09/08 00:06:13;;;;;;;29.82;20.97;;;;;;;12.00;54.78;100007.38;1821992;77;21072;-78
2022/09/08 00:08:40;;;;;;;27.22;20.05;;;;;;;11.99;55.09;99996.41;1825409;77;21110;-78
2022/09/08 00:11:08;;;;;;;30.10;21.00;;;;;;;11.96;55.30;100008.72;1831434;77;21032;-77
2022/09/08 00:13:37;;;;;;;31.15;21.97;;;;;;;11.90;55.53;100009.41;1823578;77;21029;-77
2022/09/08 00:16:05;;;;;;;28.38;22.67;;;;;;;11.86;55.90;100004.55;1822745;76;21032;-79
2022/09/08 00:18:33;;;;;;;28.85;21.80;;;;;;;11.81;56.18;100003.73;1829827;77;21052;-79
2022/09/08 00:21:01;;;;;;;28.02;20.57;;;;;;;11.78;56.76;100001.40;1805851;78;21091;-78
2022/09/08 00:23:28;;;;;;;27.48;18.98;;;;;;;11.77;56.82;100004.56;1829986;77;21364;-77
2022/09/08 00:25:55;;;;;;;25.90;19.05;;;;;;;11.76;56.84;100002.06;1822540;77;21037;-75
2022/09/08 00:28:21;;;;;;;25.12;18.23;;;;;;;11.75;56.79;100000.42;1818315;77;21001;-73
2022/09/08 00:30:47;;;;;;;22.87;16.25;;;;;;;11.73;56.90;100004.58;1834417;77;21005;-72
2022/09/08 00:33:14;;;;;;;26.77;17.17;;;;;;;11.71;56.86;100003.92;1826019;76;21222;-74
2022/09/08 00:35:44;;;;;;;20.75;15.20;;;;;;;11.70;56.70;100002.75;1830406;77;21036;-72
2022/09/08 00:38:12;;;;;;;22.17;14.33;;;;;;;11.67;56.68;100004.44;1827831;77;21158;-74
2022/09/08 00:40:45;;;;;;;21.02;13.05;;;;;;;11.67;56.36;100000.45;1808536;78;21011;-74
2022/09/08 00:43:33;;;;;;;21.57;13.75;;;;;;;11.70;56.39;100000.09;1819094;77;21070;-72
2022/09/08 00:46:08;;;;;;;18.92;12.98;;;;;;;11.71;56.20;99994.61;1818387;77;21150;-73
2022/09/08 00:48:38;;;;;;;17.65;13.22;;;;;;;11.73;56.12;99993.94;1824440;76;21016;-74
2022/09/08 00:51:04;;;;;;;21.05;14.10;;;;;;;11.75;56.18;99989.78;1827757;77;20968;-73
2022/09/08 00:53:31;;;;;;;17.07;13.03;;;;;;;11.77;56.35;99989.11;1829227;77;21507;-71
2022/09/08 00:55:57;;;;;;;19.70;13.50;;;;;;;11.78;56.47;99984.09;1819735;77;21134;-73
2022/09/08 00:58:26;;;;;;;20.70;13.25;;;;;;;11.78;56.50;99976.96;1824493;77;21215;-73
2022/09/08 01:00:52;;;;;;;18.52;13.45;;;;;;;11.80;56.73;99976.30;1831908;77;21017;-74
2022/09/08 01:03:19;;;;;;;18.60;12.10;;;;;;;11.79;56.80;99975.95;1830365;78;21000;-72
2022/09/08 01:06:12;;;;;;;20.62;12.50;;;;;;;11.78;56.87;99980.10;1821066;76;21477;-74
2022/09/08 01:14:52;;;;;;;20.45;12.45;;;;;;;11.76;57.06;99975.45;1815182;78;21608;-71
2022/09/08 01:17:30;;;;;;;16.70;11.65;;;;;;;11.74;57.26;99970.33;1819930;77;21531;-73
2022/09/08 01:19:58;;;;;;;21.93;11.68;;;;;;;11.73;57.38;99970.48;1827740;77;21059;-71
2022/09/08 01:23:11;;;;;;;17.52;11.08;;;;;;;11.74;57.44;99969.47;1832157;77;21036;-73
2022/09/08 01:26:02;;;;;;;17.30;11.15;;;;;;;11.74;57.48;99966.33;1829780;77;26462;-73
2022/09/08 01:28:42;;;;;;;16.42;11.70;;;;;;;11.76;57.27;99973.64;1814107;77;21005;-72
2022/09/08 01:31:08;;;;;;;14.80;11.45;;;;;;;11.76;57.16;99965.66;1826359;77;21001;-73
2022/09/08 01:33:36;;;;;;;15.88;11.08;;;;;;;11.80;57.00;99972.30;1811585;77;21039;-73
2022/09/08 01:36:09;;;;;;;14.38;10.08;;;;;;;11.83;57.03;99964.46;1799171;78;21037;-74
2022/09/08 01:38:36;;;;;;;;;;;;;;;11.87;56.90;99963.11;1818707;77;21074;-73
2022/09/08 01:41:03;;;;;;;16.17;10.78;;;;;;;11.88;56.85;99963.46;1830104;78;20514;-73
2022/09/08 01:43:30;;;;;;;14.33;9.90;;;;;;;11.89;56.60;99962.47;1816966;77;21122;-73
2022/09/08 01:45:56;;;;;;;19.73;10.40;;;;;;;11.89;56.19;99967.80;1828060;77;21017;-73
2022/09/08 01:48:24;;;;;;;17.90;10.55;;;;;;;11.91;56.16;99975.11;1827042;78;21576;-73
2022/09/08 01:50:51;;;;;;;12.55;9.23;;;;;;;11.96;55.71;99970.63;1826756;77;21238;-72
2022/09/08 01:53:18;;;;;;;13.22;8.65;;;;;;;12.00;55.76;99970.09;1822505;77;21477;-72
2022/09/08 01:55:44;;;;;;;12.70;8.88;;;;;;;12.03;55.60;99965.43;1802993;77;21104;-72
2022/09/08 01:58:11;;;;;;;13.25;9.08;;;;;;;12.06;55.62;99969.09;1817633;77;21040;-72
2022/09/08 02:00:41;;;;;;;13.75;9.25;;;;;;;12.05;55.52;99970.08;1823836;77;21044;-73
2022/09/08 02:03:10;;;;;;;14.15;7.78;;;;;;;12.00;55.57;99971.94;1830056;77;21144;-74
2022/09/08 02:05:40;;;;;;;12.78;9.05;;;;;;;11.95;55.70;99982.27;1829847;77;21575;-75
2022/09/08 02:08:07;;;;;;;15.48;8.38;;;;;;;11.93;55.74;99974.95;1827467;77;21096;-74
2022/09/08 02:10:34;;;;;;;15.28;9.03;;;;;;;11.92;55.94;99971.97;1822621;77;21545;-74
2022/09/08 02:13:01;;;;;;;14.10;9.60;;;;;;;11.91;56.14;99968.45;1830261;77;20992;-75
2022/09/08 02:15:28;;;;;;;12.18;9.03;;;;;;;11.90;56.25;99964.16;1828180;77;21776;-75
2022/09/08 02:17:54;;;;;;;12.03;8.18;;;;;;;11.92;56.19;99960.81;1803113;77;21023;-73
2022/09/08 02:20:22;;;;;;;10.88;8.65;;;;;;;11.94;55.64;99956.14;1794465;78;21017;-74
2022/09/08 02:22:48;;;;;;;10.90;7.28;;;;;;;11.94;55.36;99960.65;1827163;77;21037;-74
2022/09/08 02:25:15;;;;;;;10.65;8.33;;;;;;;11.91;55.33;99959.14;1815183;77;21009;-74
2022/09/08 02:27:42;;;;;;;14.47;8.70;;;;;;;11.87;55.37;99959.12;1815962;77;21193;-74
2022/09/08 02:30:11;;;;;;;11.68;7.50;;;;;;;11.80;55.35;99958.14;1804922;77;20989;-75
2022/09/08 02:32:39;;;;;;;9.10;7.85;;;;;;;11.72;55.81;99953.66;1794321;78;21028;-75
2022/09/08 02:35:07;;;;;;;10.75;7.75;;;;;;;11.65;56.02;99953.19;1810475;77;21045;-74
2022/09/08 02:37:34;;;;;;;11.65;8.65;;;;;;;11.57;56.12;99956.69;1810508;77;21048;-73
2022/09/08 02:40:02;;;;;;;12.58;7.87;;;;;;;11.49;56.29;99953.58;1820987;77;21087;-73
2022/09/08 02:42:29;;;;;;;11.43;7.78;;;;;;;11.41;56.37;99961.07;1830308;77;21060;-72
2022/09/08 02:44:57;;;;;;;12.00;8.13;;;;;;;11.37;56.41;99962.88;1806654;77;21096;-75
2022/09/08 02:47:23;;;;;;;10.80;7.65;;;;;;;11.34;56.79;99968.56;1813447;78;21036;-74
2022/09/08 02:49:50;;;;;;;10.28;7.40;;;;;;;11.34;56.90;99968.56;1805344;77;21048;-75
2022/09/08 02:52:16;;;;;;;11.40;7.50;;;;;;;11.32;56.89;99970.05;1825072;77;21121;-74
2022/09/08 02:54:43;;;;;;;12.53;7.45;;;;;;;11.32;56.83;99973.19;1788610;77;21020;-75
2022/09/08 02:57:12;;;;;;;9.93;7.30;;;;;;;11.30;56.81;99973.85;1821591;77;21004;-76
2022/09/08 02:59:39;;;;;;;11.35;8.08;;;;;;;11.26;56.92;99978.70;1828102;78;20997;-76
2022/09/08 03:02:05;;;;;;;11.40;7.85;;;;;;;11.19;57.19;99981.17;1824340;78;20998;-75
2022/09/08 03:04:33;;;;;;;14.80;7.55;;;;;;;11.14;57.33;99980.83;1848494;77;21125;-76
2022/09/08 03:07:00;;;;;;;12.73;7.67;;;;;;;11.11;57.50;99985.68;1830158;77;21024;-76
2022/09/08 03:09:27;;;;;;;14.78;8.05;;;;;;;11.06;57.71;99980.84;1824989;77;21064;-77
2022/09/08 03:11:53;;;;;;;12.07;7.45;;;;;;;11.04;57.73;99980.68;1800758;77;21004;-75
2022/09/08 03:14:19;;;;;;;17.20;8.30;;;;;;;11.00;57.87;99974.86;1793942;77;21040;-76
2022/09/08 03:16:46;;;;;;;10.95;8.15;;;;;;;10.96;58.01;99972.20;1824373;78;21072;-73
2022/09/08 03:19:13;;;;;;;12.73;8.03;;;;;;;10.91;57.99;99975.84;1824109;77;20997;-73
2022/09/08 03:21:40;;;;;;;13.05;8.15;;;;;;;10.86;58.10;99971.53;1813626;77;20993;-73
2022/09/08 03:24:06;;;;;;;12.70;8.35;;;;;;;10.80;58.07;99977.01;1820683;77;21252;-76
2022/09/08 03:26:33;;;;;;;12.37;7.30;;;;;;;10.75;58.36;99983.30;1817179;77;21025;-76
2022/09/08 03:29:00;;;;;;;11.05;7.40;;;;;;;10.73;58.46;99986.62;1820119;77;21144;-74
2022/09/08 03:31:27;;;;;;;16.82;7.92;;;;;;;10.73;58.49;99989.27;1820545;77;21453;-74
2022/09/08 03:33:55;;;;;;;12.53;7.00;;;;;;;10.70;58.36;99989.59;1822477;77;21533;-74
2022/09/08 03:36:21;;;;;;;13.85;7.50;;;;;;;10.68;58.31;99987.12;1822425;78;21017;-76
2022/09/08 03:38:49;;;;;;;21.37;7.67;;;;;;;10.66;58.34;99986.42;1825765;77;21027;-73
2022/09/08 03:41:16;;;;;;;13.38;6.85;;;;;;;10.64;58.46;99980.44;1803069;77;21210;-72
2022/09/08 03:43:47;;;;;;;15.75;7.20;;;;;;;10.64;58.52;99980.44;1818040;77;20993;-73
2022/09/08 03:46:14;;;;;;;14.23;7.62;;;;;;;10.62;58.57;99981.09;1816969;77;21021;-73
2022/09/08 03:48:41;;;;;;;13.85;7.20;;;;;;;10.59;58.68;99980.94;1824970;77;20969;-72
2022/09/08 03:51:15;;;;;;;12.40;6.92;;;;;;;10.55;58.58;99969.48;1816584;77;21517;-72
2022/09/08 03:53:44;;;;;;;14.80;6.53;;;;;;;10.53;58.79;99972.30;1815816;77;25660;-72
2022/09/08 03:56:10;;;;;;;11.63;7.37;;;;;;;10.52;58.77;99965.81;1825545;78;20994;-71
2022/09/08 03:58:38;;;;;;;17.52;7.03;;;;;;;10.55;58.80;99972.14;1799759;77;21072;-72
2022/09/08 04:01:13;;;;;;;12.68;6.47;;;;;;;10.58;58.76;99974.45;1819997;78;21013;-74
2022/09/08 04:03:40;;;;;;;18.52;7.72;;;;;;;10.59;58.56;99967.66;1807428;77;21508;-73
2022/09/08 04:06:07;;;;;;;13.20;7.28;;;;;;;10.63;58.43;99966.84;1809342;77;21087;-72
2022/09/08 04:08:34;;;;;;;11.78;6.50;;;;;;;10.66;58.32;99963.84;1810611;77;21032;-74
2022/09/08 04:11:02;;;;;;;22.85;7.33;;;;;;;10.73;58.36;99968.84;1822230;77;21068;-75
2022/09/08 04:13:28;;;;;;;13.72;6.20;;;;;;;10.92;58.31;99971.70;1824595;77;21247;-74
2022/09/08 04:15:55;;;;;;;15.23;6.83;;;;;;;11.08;57.90;99966.88;1824623;77;21003;-74
2022/09/08 04:18:22;;;;;;;17.52;7.33;;;;;;;11.15;57.60;99967.88;1822797;78;21111;-74
2022/09/08 04:21:00;;;;;;;17.45;7.35;;;;;;;11.21;57.50;99975.19;1807709;77;21029;-75
2022/09/08 04:23:26;;;;;;;23.25;7.25;;;;;;;11.25;57.53;99974.36;1823815;77;21119;-75
2022/09/08 04:26:01;;;;;;;13.62;6.60;;;;;;;11.29;57.56;99976.20;1809334;77;21596;-76
2022/09/08 04:28:27;;;;;;;21.93;7.85;;;;;;;11.31;57.41;99975.53;1831231;77;21003;-79
2022/09/08 04:30:54;;;;;;;14.00;6.33;;;;;;;11.33;57.40;99980.18;1828381;77;21039;-77
2022/09/08 04:33:20;;;;;;;13.68;6.65;;;;;;;11.34;57.40;99976.03;1836558;77;21003;-76
2022/09/08 04:35:47;;;;;;;19.17;6.87;;;;;;;11.38;57.50;99984.00;1828230;77;21036;-77
2022/09/08 04:38:13;;;;;;;15.93;6.70;;;;;;;11.46;57.51;99984.49;1831693;78;21056;-77
2022/09/08 04:40:41;;;;;;;15.25;7.00;;;;;;;11.52;57.47;99988.31;1809038;78;21001;-78
2022/09/08 04:43:08;;;;;;;18.42;8.35;;;;;;;11.63;57.39;99985.79;1830489;78;21225;-78
2022/09/08 04:45:36;;;;;;;16.12;7.80;;;;;;;11.72;57.56;99986.11;1831693;78;21521;-77
2022/09/08 04:48:02;;;;;;;16.73;8.83;;;;;;;11.81;57.59;99983.77;1836080;77;21022;-77
2022/09/08 04:50:29;;;;;;;24.50;8.35;;;;;;;11.91;57.53;99980.44;1817651;78;21525;-78
2022/09/08 04:52:55;;;;;;;14.35;7.53;;;;;;;12.02;57.19;99984.58;1829435;77;21048;-79
2022/09/08 04:55:22;;;;;;;14.58;7.40;;;;;;;12.12;56.76;99981.20;1822773;77;21068;-77
2022/09/08 04:57:48;;;;;;;10.48;5.87;;;;;;;12.24;56.35;99978.98;1828833;76;21061;-77
2022/09/08 05:00:15;;;;;;;15.80;7.17;;;;;;;12.36;56.13;99978.95;1826392;77;21045;-76
2022/09/08 05:02:45;;;;;;;15.05;7.08;;;;;;;12.50;55.94;99979.22;1806930;78;21036;-77
2022/09/08 05:05:10;;;;;;;10.25;5.80;;;;;;;12.61;55.77;99972.14;1830310;78;21033;-77
2022/09/08 05:07:37;;;;;;;8.05;5.25;;;;;;;12.71;55.29;99974.58;1828825;78;21138;-79
2022/09/08 05:10:06;;;;;;;14.85;4.95;;;;;;;12.79;55.06;99974.03;1805311;77;21058;-80
2022/09/08 05:12:34;;;;;;;11.25;5.35;;;;;;;12.92;54.61;99976.61;1816483;78;21016;-80
2022/09/08 05:15:01;;;;;;;8.70;5.33;;;;;;;12.99;54.34;99973.05;1828266;77;21512;-79
2022/09/08 05:17:29;;;;;;;9.03;5.75;;;;;;;13.07;54.43;99974.83;1826029;77;20970;-80
2022/09/08 05:19:56;;;;;;;9.25;4.80;;;;;;;13.17;54.33;99975.44;1828892;77;21279;-77
2022/09/08 05:22:23;;;;;;;6.35;5.12;;;;;;;13.32;54.07;99978.66;1819659;77;21165;-77
2022/09/08 05:24:50;;;;;;;7.15;5.00;;;;;;;13.45;53.61;99975.39;1822453;78;21001;-77
2022/09/08 05:27:16;;;;;;;11.45;5.60;;;;;;;13.59;53.11;99975.09;1822649;78;21072;-77
2022/09/08 05:29:42;;;;;;;8.90;4.67;;;;;;;13.72;52.81;99977.45;1813975;77;21269;-79
2022/09/08 05:32:09;;;;;;;7.40;4.42;;;;;;;13.85;52.63;99969.30;1822216;77;21845;-79
2022/09/08 05:34:36;;;;;;;7.83;4.50;;;;;;;13.99;52.31;99987.70;1812071;77;21021;-80
2022/09/08 05:37:02;;;;;;;9.60;4.40;;;;;;;14.09;51.83;99981.05;1823515;78;21154;-77
2022/09/08 05:39:29;;;;;;;7.45;4.72;;;;;;;14.23;51.51;99976.70;1823671;78;21018;-78
2022/09/08 05:41:56;;;;;;;6.60;4.65;;;;;;;14.36;51.25;99978.72;1815047;77;21579;-77
2022/09/08 05:44:22;;;;;;;6.30;3.98;;;;;;;14.50;51.15;99978.36;1806551;77;21697;-78
2022/09/08 05:46:49;;;;;;;7.40;4.20;;;;;;;14.63;50.89;99977.21;1812852;77;21023;-76
2022/09/08 05:49:16;;;;;;;8.60;4.03;;;;;;;14.75;50.76;99977.54;1816040;77;20966;-78
2022/09/08 05:51:42;;;;;;;9.30;4.55;;;;;;;14.87;50.44;99981.88;1824798;77;21595;-77
2022/09/08 05:54:09;;;;;;;10.45;5.42;;;;;;;14.99;50.18;99987.55;1798983;77;21479;-78
2022/09/08 05:56:35;;;;;;;10.00;4.92;;;;;;;15.07;49.72;99981.58;1823041;78;21648;-78
2022/09/08 05:59:02;;;;;;;9.80;5.80;;;;;;;15.16;49.86;99979.58;1822360;77;21024;-76
2022/09/08 06:01:31;;;;;;;10.53;5.78;;;;;;;15.24;49.80;99982.63;1806578;77;21001;-81
2022/09/08 06:03:59;;;;;;;8.05;5.50;;;;;;;15.34;49.72;99979.14;1820873;78;21004;-81
2022/09/08 06:06:27;;;;;;;7.15;4.72;;;;;;;15.44;49.55;99978.80;1814795;78;21563;-80
2022/09/08 06:08:54;;;;;;;10.85;5.92;;;;;;;15.53;49.59;99977.13;1812987;78;21755;-82
2022/09/08 06:11:23;;;;;;;9.73;5.62;;;;;;;15.64;49.36;99985.63;1816357;77;21001;-80
2022/09/08 06:13:50;;;;;;;9.10;6.40;;;;;;;15.75;49.33;99986.98;1823915;77;21466;-81
2022/09/08 06:16:17;;;;;;;7.80;5.67;;;;;;;15.85;49.01;99987.45;1818011;77;21022;-82
2022/09/08 06:18:44;;;;;;;9.33;5.45;;;;;;;15.94;48.89;99988.97;1805165;77;21038;-82
2022/09/08 06:21:19;;;;;;;13.30;7.08;;;;;;;16.03;48.35;99987.79;1828035;77;21477;-80
2022/09/08 06:23:56;;;;;;;11.40;6.80;;;;;;;16.12;47.83;99988.44;1818286;77;21005;-82
2022/09/08 06:26:45;;;;;;;9.03;6.90;;;;;;;16.22;47.60;99991.57;1825389;78;21576;-82
2022/09/08 06:29:27;;;;;;;11.05;5.72;;;;;;;16.30;47.42;99995.94;1830395;77;21095;-80
2022/09/08 06:32:30;;;;;;;8.65;5.70;;;;;;;16.36;46.93;99991.14;1814874;77;21024;-77
2022/09/08 06:35:08;;;;;;;9.38;6.33;;;;;;;16.40;46.87;99995.08;1822720;77;21152;-80
2022/09/08 06:37:57;;;;;;;8.63;5.67;;;;;;;16.45;46.71;100000.64;1823235;77;21176;-80
2022/09/08 06:40:42;;;;;;;8.93;5.15;;;;;;;16.53;46.47;100001.50;1813215;78;21548;-80
2022/09/08 06:43:28;;;;;;;8.33;5.45;;;;;;;16.62;45.94;100008.35;1824371;78;21076;-79
2022/09/08 06:45:56;;;;;;;8.98;5.30;;;;;;;16.70;45.56;100006.30;1811384;78;21564;-78
2022/09/08 06:48:34;;;;;;;6.67;5.50;;;;;;;16.78;45.86;100009.84;1801700;78;21081;-78
2022/09/08 06:51:31;;;;;;;7.78;6.05;;;;;;;16.85;46.23;100009.38;1807305;77;21068;-79
2022/09/08 06:54:18;;;;;;;7.85;6.05;;;;;;;16.93;46.49;100007.84;1821073;77;21063;-79
2022/09/08 06:56:56;;;;;;;10.53;7.15;;;;;;;17.01;46.80;100013.55;1803004;78;21561;-78
2022/09/08 07:00:10;;;;;;;11.88;7.40;;;;;;;17.05;46.84;100013.44;1825231;77;21056;-78
2022/09/08 07:03:08;;;;;;;9.28;6.33;;;;;;;17.11;46.96;100009.94;1823479;78;21198;-76
2022/09/08 07:05:40;;;;;;;11.70;7.00;;;;;;;17.19;46.71;100017.81;1814837;77;21126;-76
2022/09/08 07:08:27;;;;;;;10.08;7.33;;;;;;;17.27;46.52;100018.14;1814639;77;21033;-74
2022/09/08 07:11:34;;;;;;;10.13;7.20;;;;;;;17.33;46.22;100019.99;1818312;76;21028;-76
2022/09/08 07:14:33;;;;;;;11.35;7.78;;;;;;;17.38;46.48;100020.18;1811711;78;21083;-76
2022/09/08 07:17:11;;;;;;;11.90;7.00;;;;;;;17.43;46.72;100017.72;1792576;78;21129;-77
2022/09/08 07:19:54;;;;;;;10.60;7.78;;;;;;;17.52;46.58;100019.70;1831618;78;21001;-76
2022/09/08 07:22:50;;;;;;;10.93;7.72;;;;;;;17.57;46.17;100017.20;1826259;78;21034;-75
2022/09/08 07:25:35;;;;;;;11.20;7.53;;;;;;;17.62;46.05;100020.63;1826281;77;20990;-74
2022/09/08 07:28:12;;;;;;;10.98;7.35;;;;;;;17.68;45.75;100020.61;1814350;77;20969;-71
2022/09/08 07:30:38;;;;;;;11.45;7.62;;;;;;;17.74;45.45;100023.50;1812539;77;22871;-72
2022/09/08 07:33:22;;;;;;;11.33;8.20;;;;;;;17.77;45.38;100029.30;1817826;77;21071;-73
2022/09/08 07:36:30;;;;;;;9.60;7.20;;;;;;;17.84;45.36;100027.95;1822349;78;21039;-72
2022/09/08 07:38:57;;;;;;;9.10;6.08;;;;;;;17.89;45.08;100029.52;1820925;77;21592;-72
2022/09/08 07:41:50;;;;;;;11.15;7.00;;;;;;;17.94;44.77;100025.66;1821081;77;21035;-71
2022/09/08 07:44:18;;;;;;;14.85;7.37;;;;;;;18.03;44.29;100026.28;1826148;77;21073;-73
2022/09/08 07:47:16;;;;;;;9.88;6.87;;;;;;;18.10;44.33;100024.41;1810127;77;21040;-72
2022/09/08 07:50:22;;;;;;;13.13;7.60;;;;;;;18.15;44.54;100028.62;1815753;77;21067;-71
2022/09/08 07:53:00;;;;;;;14.87;8.35;;;;;;;18.24;44.22;100026.02;1817917;77;21085;-72
2022/09/08 07:55:42;;;;;;;13.50;7.62;;;;;;;18.37;44.28;100031.03;1796188;77;21067;-73
2022/09/08 07:58:30;;;;;;;13.55;6.83;;;;;;;18.49;44.13;100032.57;1817254;77;22021;-72
2022/09/08 08:01:27;;;;;;;8.08;5.92;;;;;;;18.60;44.12;100031.38;1818651;77;21076;-72
2022/09/08 08:04:42;;;;;;;10.50;5.70;;;;;;;18.71;43.18;100027.17;1811208;77;21461;-73
2022/09/08 08:07:14;;;;;;;10.82;5.70;;;;;;;18.83;42.25;100021.47;1819869;77;21042;-74
2022/09/08 08:10:04;;;;;;;11.50;5.90;;;;;;;18.95;42.08;100024.80;1814514;77;21008;-73
2022/09/08 08:12:49;;;;;;;10.58;6.05;;;;;;;19.08;42.29;100021.21;1819127;77;21833;-71
2022/09/08 08:15:28;;;;;;;6.85;4.75;;;;;;;19.23;41.97;100022.55;1824771;77;21045;-73
2022/09/08 08:18:21;;;;;;;6.67;4.40;;;;;;;19.40;41.32;100020.14;1830598;77;21080;-73
2022/09/08 08:21:15;;;;;;;8.18;5.10;;;;;;;19.56;40.46;100017.42;1816531;77;20981;-76
2022/09/08 08:24:04;;;;;;;8.58;4.58;;;;;;;19.68;39.61;100020.22;1797958;78;20964;-76
2022/09/08 08:27:00;;;;;;;5.10;4.60;;;;;;;19.66;38.86;100014.22;1802222;77;21196;-75
2022/09/08 08:29:51;;;;;;;8.18;5.08;;;;;;;19.64;39.06;100014.47;1753492;80;21628;-75
2022/09/08 08:32:24;;;;;;;9.15;5.10;;;;;;;19.67;39.27;100010.50;1769953;79;21103;-74
2022/09/08 08:35:07;;;;;;;7.17;5.37;;;;;;;19.82;39.68;100016.93;1779148;78;20994;-74
2022/09/08 08:37:36;;;;;;;;;;;;;;;20.01;39.21;100014.56;1811777;77;21028;-73
2022/09/08 08:40:10;;;;;;;9.88;4.75;;;;;;;20.21;39.10;100010.81;1821363;77;21819;-76
2022/09/08 08:43:06;;;;;;;7.28;4.85;;;;;;;20.37;38.83;100013.43;1810167;78;21551;-76
2022/09/08 08:46:04;;;;;;;7.47;5.33;;;;;;;20.53;38.19;100014.18;1794925;77;21007;-75
2022/09/08 08:49:13;;;;;;;9.13;6.20;;;;;;;20.65;38.20;100012.06;1842724;77;21026;-74
2022/09/08 08:52:03;;;;;;;13.55;6.50;;;;;;;20.81;38.44;100006.05;1731499;81;21046;-75
2022/09/08 08:54:52;;;;;;;8.63;6.87;;;;;;;21.06;38.29;100008.59;1776325;79;21210;-74
2022/09/08 08:57:44;;;;;;;7.92;6.50;;;;;;;21.31;38.16;100002.20;1741625;81;21108;-74
2022/09/08 09:00:43;;;;;;;9.25;7.35;;;;;;;21.65;37.48;100007.35;1728812;81;21056;-73
2022/09/08 09:03:55;;;;;;;9.73;7.95;;;;;;;21.94;36.86;100004.26;1763472;80;20997;-73
2022/09/08 09:06:48;;;;;;;13.10;8.23;;;;;;;22.35;36.80;100002.98;1736287;80;20997;-73
2022/09/08 09:09:27;;;;;;;14.03;9.73;;;;;;;23.07;36.44;99999.77;1739479;80;21006;-72
2022/09/08 09:12:09;;;;;;;11.83;10.60;;;;;;;23.82;35.35;99999.63;1740626;80;22066;-72
2022/09/08 09:15:02;;;;;;;16.90;11.43;;;;;;;24.41;34.77;99994.41;1752298;81;20994;-73
2022/09/08 09:18:01;;;;;;;11.75;9.30;;;;;;;24.99;34.47;99995.33;1738487;80;21056;-71
2022/09/08 09:21:00;;;;;;;9.73;7.00;;;;;;;25.69;33.31;100000.27;1731007;81;21400;-70
2022/09/08 09:24:01;;;;;;;9.98;5.62;;;;;;;26.45;32.13;99991.70;1753843;80;21147;-71
2022/09/08 09:26:33;;;;;;;6.92;4.37;;;;;;;27.17;30.52;99986.41;1742256;80;21047;-71
2022/09/08 09:29:25;;;;;;;8.98;5.10;;;;;;;27.78;29.59;99986.13;1742334;81;21021;-73
2022/09/08 09:32:09;;;;;;;6.30;4.80;;;;;;;28.32;28.98;99985.94;1759489;80;21046;-73
2022/09/08 09:35:32;;;;;;;5.58;4.50;;;;;;;28.91;28.10;99994.66;1744786;81;21167;-73
2022/09/08 09:38:56;;;;;;;7.67;4.25;;;;;;;29.39;27.47;99986.65;1739210;80;21148;-70
2022/09/08 09:41:51;;;;;;;8.28;3.77;;;;;;;29.97;26.97;99989.92;1747561;81;21791;-72
2022/09/08 09:44:45;;;;;;;6.95;3.62;;;;;;;30.42;26.40;99993.78;1743221;81;21623;-77
2022/09/08 09:47:27;;;;;;;6.83;3.72;;;;;;;30.81;25.82;99994.08;1745295;80;20998;-73
2022/09/08 09:50:34;;;;;;;5.20;4.15;;;;;;;31.23;25.45;99999.19;1758226;80;21124;-76
2022/09/08 09:53:22;;;;;;;7.80;4.42;;;;;;;31.53;25.14;99997.89;1745203;81;21075;-82
2022/09/08 09:56:03;;;;;;;5.87;4.25;;;;;;;31.73;24.94;99998.63;1738022;81;21061;-81
2022/09/08 09:59:08;;;;;;;4.30;3.62;;;;;;;31.94;24.62;99996.31;1757170;80;21082;-81
2022/09/08 10:01:53;;;;;;;5.35;3.62;;;;;;;32.07;24.29;99998.28;1732047;81;21042;-79
2022/09/08 10:04:40;;;;;;;5.17;3.80;;;;;;;32.31;23.91;99999.98;1760533;81;20997;-80
2022/09/08 10:07:31;;;;;;;3.50;2.95;;;;;;;32.62;23.88;100015.28;1756030;80;21593;-81
2022/09/08 10:10:30;;;;;;;5.92;2.60;;;;;;;33.01;23.28;100014.40;1739008;80;21033;-74
2022/09/08 10:13:22;;;;;;;3.10;2.70;;;;;;;33.37;22.90;100007.48;1752993;80;21045;-74
2022/09/08 10:16:21;;;;;;;4.30;3.58;;;;;;;33.72;22.66;100008.27;1757403;81;21564;-76
2022/09/08 10:19:05;;;;;;;4.33;3.35;;;;;;;34.00;22.37;100006.13;1750688;81;21037;-74
2022/09/08 10:22:09;;;;;;;4.80;3.60;;;;;;;34.14;22.34;100007.39;1758578;81;21160;-73
2022/09/08 10:25:04;;;;;;;6.62;3.67;;;;;;;34.38;22.23;100008.36;1751524;80;21069;-73
2022/09/08 10:28:03;;;;;;;3.33;3.02;;;;;;;34.34;22.02;100001.86;1716738;83;21155;-73
2022/09/08 10:31:19;;;;;;;9.20;3.35;;;;;;;34.35;22.01;100006.26;1711238;83;21022;-73
2022/09/08 10:34:13;;;;;;;4.40;3.52;;;;;;;34.51;21.94;100007.98;1696291;83;21017;-75
2022/09/08 10:36:48;;;;;;;4.62;3.42;;;;;;;34.83;21.66;100013.07;1708040;82;21981;-72
2022/09/08 10:42:53;;;;;;;5.45;3.35;;;;;;;35.45;21.30;100008.31;1774423;78;22629;-71
2022/09/08 10:45:47;;;;;;;3.60;2.87;;;;;;;35.86;20.71;100004.72;1730473;80;21045;-74
2022/09/08 10:48:39;;;;;;;4.87;3.30;;;;;;;35.93;20.74;100009.13;1737502;80;21586;-70
2022/09/08 10:51:18;;;;;;;;;;;;;;;36.00;20.62;100006.09;1736508;80;21572;-74
2022/09/08 10:53:59;;;;;;;4.75;4.25;;;;;;;36.13;20.59;100011.16;1737312;80;20194;-74
2022/09/08 10:56:29;;;;;;;6.90;4.83;;;;;;;36.27;20.73;100008.17;1734704;80;21116;-79
2022/09/08 10:59:22;;;;;;;5.90;5.17;;;;;;;36.57;20.48;100003.42;1736688;80;21164;-84
2022/09/08 11:02:12;;;;;;;5.28;4.40;;;;;;;36.58;20.66;100000.88;1721544;81;23487;-82
2022/09/08 11:05:03;;;;;;;6.03;4.92;;;;;;;36.81;20.63;99999.19;1742795;80;21716;-81
2022/09/08 11:07:55;;;;;;;;;;;;;;;37.10;20.53;99993.32;1750765;80;21300;-81
2022/09/08 11:11:02;;;;;;;5.87;5.28;;;;;;;37.12;20.39;100000.70;1754437;80;20214;-81
2022/09/08 11:14:04;;;;;;;9.13;5.95;;;;;;;37.04;20.34;100001.61;1673503;85;21050;-80
2022/09/08 11:16:45;;;;;;;8.58;6.05;;;;;;;37.00;20.41;99996.73;1689162;83;21216;-81
2022/09/08 11:19:37;;;;;;;7.12;6.53;;;;;;;37.18;20.51;99989.09;1674741;83;21544;-81
2022/09/08 11:22:21;;;;;;;9.98;8.08;;;;;;;37.35;20.43;99991.46;1628687;87;21595;-82
2022/09/08 11:25:15;;;;;;;9.90;8.90;;;;;;;37.63;20.49;99990.28;1634424;86;21047;-83
2022/09/08 11:28:14;;;;;;;9.45;8.43;;;;;;;38.02;20.20;99990.75;1612044;87;21234;-82
2022/09/08 11:31:00;;;;;;;11.88;9.28;;;;;;;38.18;20.06;99985.34;1641552;86;22326;-83
2022/09/08 11:34:01;;;;;;;11.18;9.43;;;;;;;38.03;20.31;99994.33;1633984;87;21069;-83
2022/09/08 11:36:56;;;;;;;13.98;11.20;;;;;;;38.05;20.49;99994.20;1634022;85;21101;-81
2022/09/08 11:39:44;;;;;;;15.58;11.97;;;;;;;38.07;20.18;99993.31;1639425;85;21139;-81
2022/09/08 11:42:53;;;;;;;17.42;12.33;;;;;;;37.99;20.50;99991.44;1640282;85;21089;-82
2022/09/08 11:45:37;;;;;;;13.93;11.83;;;;;;;38.13;20.48;99991.11;1642064;87;21175;-82
2022/09/08 11:48:41;;;;;;;15.50;12.75;;;;;;;38.30;20.47;99989.47;1642692;85;21131;-75
2022/09/08 11:51:26;;;;;;;16.23;13.60;;;;;;;38.63;20.25;99989.08;1635205;86;21207;-74
2022/09/08 11:54:23;;;;;;;15.13;13.62;;;;;;;38.68;20.18;99991.03;1636972;87;21094;-73
2022/09/08 11:57:22;;;;;;;16.35;14.53;;;;;;;38.58;20.09;99985.98;1635600;87;21146;-74
2022/09/08 12:00:12;;;;;;;13.15;11.18;;;;;;;38.34;20.16;99977.09;1641196;87;21176;-76
2022/09/08 12:03:00;;;;;;;11.75;9.90;;;;;;;38.18;20.38;99980.38;1643478;86;21537;-75
2022/09/08 12:05:57;;;;;;;10.90;9.63;;;;;;;38.36;20.34;99970.62;1639877;87;21273;-73
2022/09/08 12:09:04;;;;;;;11.95;9.23;;;;;;;38.44;20.23;99969.70;1636905;84;21553;-73
2022/09/08 12:11:36;;;;;;;12.60;10.85;;;;;;;38.41;20.35;99966.81;1692632;83;21108;-75
2022/09/08 12:14:24;;;;;;;12.15;10.60;;;;;;;38.31;20.37;99971.67;1611430;87;21544;-76
2022/09/08 12:17:08;;;;;;;14.20;12.60;;;;;;;38.38;20.35;99973.84;1629136;86;21109;-72
2022/09/08 12:20:00;;;;;;;13.30;11.68;;;;;;;38.66;20.28;99974.52;1665221;84;21099;-77
2022/09/08 12:22:40;;;;;;;12.82;11.63;;;;;;;38.88;20.17;99971.16;1664612;84;21062;-77
2022/09/08 12:25:18;;;;;;;16.45;11.43;;;;;;;39.09;20.05;99978.52;1664596;84;21132;-79